Terminal Aerodrome Forecast
Issued by NWS Louisville, KY

Home | Current Version | Previous Version | Text Only | Print | Product List | Glossary Off
Versions: 1 2 3 4 5 6 7 8 9 10 11 12 13 14 15 16 17

000
FTUS43 KLMK 261720
TAFBWG
TAF
KBWG 261720Z 2618/2718 17008KT P6SM SCT200
     FM262300 14003KT P6SM BKN100
     FM271000 16006KT P6SM VCSH OVC035
     FM271400 17008KT 6SM -SHRA BKN026
     FM271600 19010KT P6SM BKN040=

USA.gov is the U.S. government's official web portal to all federal, state and local government web resources and services.